sensor_id;sensor_type;location;lat;lon;timestamp;temperature;humidity
9375;DHT22;4727;51.202;6.344;2023-07-31T00:01:20;16.40;99.90
9375;DHT22;4727;51.202;6.344;2023-07-31T00:03:46;16.30;99.90
9375;DHT22;4727;51.202;6.344;2023-07-31T00:06:12;16.30;99.90
9375;DHT22;4727;51.202;6.344;2023-07-31T00:08:37;16.30;99.90
9375;DHT22;4727;51.202;6.344;2023-07-31T00:11:03;16.30;99.90
9375;DHT22;4727;51.202;6.344;2023-07-31T00:13:29;16.30;99.90
9375;DHT22;4727;51.202;6.344;2023-07-31T00:15:54;16.30;99.90
9375;DHT22;4727;51.202;6.344;2023-07-31T00:18:20;16.30;99.90
9375;DHT22;4727;51.202;6.344;2023-07-31T00:20:46;16.30;99.90
9375;DHT22;4727;51.202;6.344;2023-07-31T00:23:11;16.30;99.90
9375;DHT22;4727;51.202;6.344;2023-07-31T00:25:37;16.30;99.90
9375;DHT22;4727;51.202;6.344;2023-07-31T00:28:02;16.30;99.90
9375;DHT22;4727;51.202;6.344;2023-07-31T00:30:28;16.30;99.90
9375;DHT22;4727;51.202;6.344;2023-07-31T00:32:53;16.40;99.90
9375;DHT22;4727;51.202;6.344;2023-07-31T00:35:19;16.30;99.90
9375;DHT22;4727;51.202;6.344;2023-07-31T00:37:44;16.30;99.90
9375;DHT22;4727;51.202;6.344;2023-07-31T00:40:10;16.30;99.90
9375;DHT22;4727;51.202;6.344;2023-07-31T00:42:36;16.30;99.90
9375;DHT22;4727;51.202;6.344;2023-07-31T00:45:01;16.30;99.90
9375;DHT22;4727;51.202;6.344;2023-07-31T00:47:27;16.30;99.90
9375;DHT22;4727;51.202;6.344;2023-07-31T00:49:53;16.40;99.90
9375;DHT22;4727;51.202;6.344;2023-07-31T00:52:19;16.40;99.90
9375;DHT22;4727;51.202;6.344;2023-07-31T00:54:45;16.50;99.90
9375;DHT22;4727;51.202;6.344;2023-07-31T00:57:11;16.30;99.90
9375;DHT22;4727;51.202;6.344;2023-07-31T00:59:37;16.30;99.90
9375;DHT22;4727;51.202;6.344;2023-07-31T01:02:03;16.30;99.90
9375;DHT22;4727;51.202;6.344;2023-07-31T01:04:29;16.30;99.90
9375;DHT22;4727;51.202;6.344;2023-07-31T01:10:14;16.20;99.90
9375;DHT22;4727;51.202;6.344;2023-07-31T01:12:38;16.30;99.90
9375;DHT22;4727;51.202;6.344;2023-07-31T01:17:30;16.30;99.90
9375;DHT22;4727;51.202;6.344;2023-07-31T01:19:59;16.30;99.90
9375;DHT22;4727;51.202;6.344;2023-07-31T01:22:54;16.30;99.90
9375;DHT22;4727;51.202;6.344;2023-07-31T01:28:14;16.30;99.90
9375;DHT22;4727;51.202;6.344;2023-07-31T01:30:45;16.30;99.90
9375;DHT22;4727;51.202;6.344;2023-07-31T01:33:14;16.20;99.90
9375;DHT22;4727;51.202;6.344;2023-07-31T01:35:44;16.40;99.90
9375;DHT22;4727;51.202;6.344;2023-07-31T01:38:10;16.30;99.90
9375;DHT22;4727;51.202;6.344;2023-07-31T01:40:35;16.30;99.90
9375;DHT22;4727;51.202;6.344;2023-07-31T01:43:01;16.30;99.90
9375;DHT22;4727;51.202;6.344;2023-07-31T01:45:26;16.20;99.90
9375;DHT22;4727;51.202;6.344;2023-07-31T01:47:52;16.30;99.90
9375;DHT22;4727;51.202;6.344;2023-07-31T01:50:18;16.30;99.90
9375;DHT22;4727;51.202;6.344;2023-07-31T01:52:43;16.30;99.90
9375;DHT22;4727;51.202;6.344;2023-07-31T01:55:09;16.30;99.90
9375;DHT22;4727;51.202;6.344;2023-07-31T01:57:36;16.30;99.90
9375;DHT22;4727;51.202;6.344;2023-07-31T02:00:02;16.30;99.90
9375;DHT22;4727;51.202;6.344;2023-07-31T02:02:28;16.30;99.90
9375;DHT22;4727;51.202;6.344;2023-07-31T02:04:53;16.50;99.90
9375;DHT22;4727;51.202;6.344;2023-07-31T02:07:19;16.30;99.90
9375;DHT22;4727;51.202;6.344;2023-07-31T02:09:44;16.20;99.90
9375;DHT22;4727;51.202;6.344;2023-07-31T02:12:12;16.30;99.90
9375;DHT22;4727;51.202;6.344;2023-07-31T02:14:39;16.30;99.90
9375;DHT22;4727;51.202;6.344;2023-07-31T02:17:05;16.30;99.90
9375;DHT22;4727;51.202;6.344;2023-07-31T02:19:31;16.30;99.90
9375;DHT22;4727;51.202;6.344;2023-07-31T02:21:57;16.40;99.90
9375;DHT22;4727;51.202;6.344;2023-07-31T02:24:23;16.40;99.90
9375;DHT22;4727;51.202;6.344;2023-07-31T02:26:49;16.40;99.90
9375;DHT22;4727;51.202;6.344;2023-07-31T02:29:15;16.20;99.90
9375;DHT22;4727;51.202;6.344;2023-07-31T02:31:40;16.40;99.90
9375;DHT22;4727;51.202;6.344;2023-07-31T02:34:06;16.50;99.90
9375;DHT22;4727;51.202;6.344;2023-07-31T02:36:31;16.50;99.90
9375;DHT22;4727;51.202;6.344;2023-07-31T02:38:57;16.50;99.90
9375;DHT22;4727;51.202;6.344;2023-07-31T02:41:22;16.50;99.90
9375;DHT22;4727;51.202;6.344;2023-07-31T02:43:48;16.70;99.90
9375;DHT22;4727;51.202;6.344;2023-07-31T02:46:13;16.60;99.90
9375;DHT22;4727;51.202;6.344;2023-07-31T02:48:39;16.60;99.90
9375;DHT22;4727;51.202;6.344;2023-07-31T02:51:04;16.80;99.90
9375;DHT22;4727;51.202;6.344;2023-07-31T02:53:30;16.60;99.90
9375;DHT22;4727;51.202;6.344;2023-07-31T02:55:55;16.80;99.90
9375;DHT22;4727;51.202;6.344;2023-07-31T02:58:21;16.70;99.90
9375;DHT22;4727;51.202;6.344;2023-07-31T03:00:46;16.70;99.90
9375;DHT22;4727;51.202;6.344;2023-07-31T03:03:12;16.70;99.90
9375;DHT22;4727;51.202;6.344;2023-07-31T03:05:38;16.70;99.90
9375;DHT22;4727;51.202;6.344;2023-07-31T03:08:03;16.70;99.90
9375;DHT22;4727;51.202;6.344;2023-07-31T03:10:29;16.70;99.90
9375;DHT22;4727;51.202;6.344;2023-07-31T03:12:54;16.80;99.90
9375;DHT22;4727;51.202;6.344;2023-07-31T03:15:20;16.80;99.90
9375;DHT22;4727;51.202;6.344;2023-07-31T03:17:46;16.80;99.90
9375;DHT22;4727;51.202;6.344;2023-07-31T03:20:11;16.80;99.90
9375;DHT22;4727;51.202;6.344;2023-07-31T03:22:37;16.80;99.90
9375;DHT22;4727;51.202;6.344;2023-07-31T03:25:03;16.90;99.90
9375;DHT22;4727;51.202;6.344;2023-07-31T03:27:29;16.90;99.90
9375;DHT22;4727;51.202;6.344;2023-07-31T03:29:54;16.90;99.90
9375;DHT22;4727;51.202;6.344;2023-07-31T03:32:20;17.00;99.90
9375;DHT22;4727;51.202;6.344;2023-07-31T03:34:46;16.90;99.90
9375;DHT22;4727;51.202;6.344;2023-07-31T03:37:11;16.80;99.90
9375;DHT22;4727;51.202;6.344;2023-07-31T03:39:37;16.90;99.90
9375;DHT22;4727;51.202;6.344;2023-07-31T03:42:03;16.90;99.90
9375;DHT22;4727;51.202;6.344;2023-07-31T03:44:28;17.00;99.90
9375;DHT22;4727;51.202;6.344;2023-07-31T03:46:54;17.00;99.90
9375;DHT22;4727;51.202;6.344;2023-07-31T03:49:20;16.80;99.90
9375;DHT22;4727;51.202;6.344;2023-07-31T03:51:45;17.00;99.90
9375;DHT22;4727;51.202;6.344;2023-07-31T03:54:11;17.00;99.90
9375;DHT22;4727;51.202;6.344;2023-07-31T03:56:38;17.00;99.90
9375;DHT22;4727;51.202;6.344;2023-07-31T03:59:04;17.00;99.90
9375;DHT22;4727;51.202;6.344;2023-07-31T04:01:29;16.80;99.90
9375;DHT22;4727;51.202;6.344;2023-07-31T04:03:55;17.00;99.90
9375;DHT22;4727;51.202;6.344;2023-07-31T04:06:21;17.00;99.90
9375;DHT22;4727;51.202;6.344;2023-07-31T04:08:46;17.00;99.90
9375;DHT22;4727;51.202;6.344;2023-07-31T04:11:12;17.00;99.90
9375;DHT22;4727;51.202;6.344;2023-07-31T04:13:38;17.00;99.90
9375;DHT22;4727;51.202;6.344;2023-07-31T04:16:04;17.00;99.90
9375;DHT22;4727;51.202;6.344;2023-07-31T04:18:29;17.00;99.90
9375;DHT22;4727;51.202;6.344;2023-07-31T04:20:56;17.10;99.90
9375;DHT22;4727;51.202;6.344;2023-07-31T04:23:24;17.00;99.90
9375;DHT22;4727;51.202;6.344;2023-07-31T04:25:49;16.90;99.90
9375;DHT22;4727;51.202;6.344;2023-07-31T04:28:15;16.90;99.90
9375;DHT22;4727;51.202;6.344;2023-07-31T04:30:40;17.00;99.90
9375;DHT22;4727;51.202;6.344;2023-07-31T04:33:06;16.90;99.90
9375;DHT22;4727;51.202;6.344;2023-07-31T04:35:31;17.00;99.90
9375;DHT22;4727;51.202;6.344;2023-07-31T04:37:57;17.20;99.90
9375;DHT22;4727;51.202;6.344;2023-07-31T04:40:23;17.00;99.90
9375;DHT22;4727;51.202;6.344;2023-07-31T04:42:48;17.10;99.90
9375;DHT22;4727;51.202;6.344;2023-07-31T04:45:14;17.10;99.90
9375;DHT22;4727;51.202;6.344;2023-07-31T04:47:40;17.10;99.90
9375;DHT22;4727;51.202;6.344;2023-07-31T04:50:06;17.10;99.90
9375;DHT22;4727;51.202;6.344;2023-07-31T04:52:31;17.10;99.90
9375;DHT22;4727;51.202;6.344;2023-07-31T04:54:57;17.20;99.90
9375;DHT22;4727;51.202;6.344;2023-07-31T04:57:22;17.10;99.90
9375;DHT22;4727;51.202;6.344;2023-07-31T04:59:48;17.20;99.90
9375;DHT22;4727;51.202;6.344;2023-07-31T05:02:13;17.20;99.90
9375;DHT22;4727;51.202;6.344;2023-07-31T05:04:39;17.40;99.90
9375;DHT22;4727;51.202;6.344;2023-07-31T05:07:05;17.20;99.90
9375;DHT22;4727;51.202;6.344;2023-07-31T05:09:30;17.20;99.90
9375;DHT22;4727;51.202;6.344;2023-07-31T05:11:56;17.30;99.90
9375;DHT22;4727;51.202;6.344;2023-07-31T05:14:22;17.30;99.90
9375;DHT22;4727;51.202;6.344;2023-07-31T05:16:48;17.30;99.90
9375;DHT22;4727;51.202;6.344;2023-07-31T05:19:13;17.30;99.90
9375;DHT22;4727;51.202;6.344;2023-07-31T05:21:39;17.20;99.90
9375;DHT22;4727;51.202;6.344;2023-07-31T05:24:05;17.40;99.90
9375;DHT22;4727;51.202;6.344;2023-07-31T05:26:31;17.50;99.90
9375;DHT22;4727;51.202;6.344;2023-07-31T05:28:56;17.40;99.90
9375;DHT22;4727;51.202;6.344;2023-07-31T05:31:23;17.40;99.90
9375;DHT22;4727;51.202;6.344;2023-07-31T05:33:49;17.30;99.90
9375;DHT22;4727;51.202;6.344;2023-07-31T05:36:16;17.40;99.90
9375;DHT22;4727;51.202;6.344;2023-07-31T05:38:41;17.40;99.90
9375;DHT22;4727;51.202;6.344;2023-07-31T05:41:09;17.40;99.90
9375;DHT22;4727;51.202;6.344;2023-07-31T05:43:35;17.40;99.90
9375;DHT22;4727;51.202;6.344;2023-07-31T05:46:00;17.30;99.90
9375;DHT22;4727;51.202;6.344;2023-07-31T05:48:27;17.30;99.90
9375;DHT22;4727;51.202;6.344;2023-07-31T05:50:52;17.10;99.90
9375;DHT22;4727;51.202;6.344;2023-07-31T05:53:18;17.00;99.90
9375;DHT22;4727;51.202;6.344;2023-07-31T05:55:43;16.90;99.90
9375;DHT22;4727;51.202;6.344;2023-07-31T05:58:09;16.80;99.90
9375;DHT22;4727;51.202;6.344;2023-07-31T06:00:34;16.90;99.90
9375;DHT22;4727;51.202;6.344;2023-07-31T06:03:00;17.00;99.90
9375;DHT22;4727;51.202;6.344;2023-07-31T06:05:26;16.80;99.90
9375;DHT22;4727;51.202;6.344;2023-07-31T06:07:53;16.70;99.90
9375;DHT22;4727;51.202;6.344;2023-07-31T06:10:19;16.70;99.90
9375;DHT22;4727;51.202;6.344;2023-07-31T06:12:44;16.70;99.90
9375;DHT22;4727;51.202;6.344;2023-07-31T06:15:10;16.80;99.90
9375;DHT22;4727;51.202;6.344;2023-07-31T06:17:36;16.70;99.90
9375;DHT22;4727;51.202;6.344;2023-07-31T06:20:02;16.70;99.90
9375;DHT22;4727;51.202;6.344;2023-07-31T06:22:30;16.60;99.90
9375;DHT22;4727;51.202;6.344;2023-07-31T06:24:56;16.60;99.90
9375;DHT22;4727;51.202;6.344;2023-07-31T06:27:22;16.60;99.90
9375;DHT22;4727;51.202;6.344;2023-07-31T06:29:48;16.80;99.90
9375;DHT22;4727;51.202;6.344;2023-07-31T06:32:13;16.60;99.90
9375;DHT22;4727;51.202;6.344;2023-07-31T06:34:39;16.70;99.90
9375;DHT22;4727;51.202;6.344;2023-07-31T06:37:05;16.70;99.90
9375;DHT22;4727;51.202;6.344;2023-07-31T06:39:30;16.70;99.90
9375;DHT22;4727;51.202;6.344;2023-07-31T06:41:56;16.80;99.90
9375;DHT22;4727;51.202;6.344;2023-07-31T06:44:21;16.70;99.90
9375;DHT22;4727;51.202;6.344;2023-07-31T06:46:47;16.80;99.90
9375;DHT22;4727;51.202;6.344;2023-07-31T06:49:13;16.70;99.90
9375;DHT22;4727;51.202;6.344;2023-07-31T06:51:40;16.60;99.90
9375;DHT22;4727;51.202;6.344;2023-07-31T06:54:08;16.60;99.90
9375;DHT22;4727;51.202;6.344;2023-07-31T06:56:34;16.70;99.90
9375;DHT22;4727;51.202;6.344;2023-07-31T06:58:59;16.50;99.90
9375;DHT22;4727;51.202;6.344;2023-07-31T07:01:25;16.50;99.90
9375;DHT22;4727;51.202;6.344;2023-07-31T07:03:51;16.60;99.90
9375;DHT22;4727;51.202;6.344;2023-07-31T07:06:17;16.40;99.90
9375;DHT22;4727;51.202;6.344;2023-07-31T07:08:43;16.40;99.90
9375;DHT22;4727;51.202;6.344;2023-07-31T07:11:09;16.50;99.90
9375;DHT22;4727;51.202;6.344;2023-07-31T07:13:34;16.50;99.90
9375;DHT22;4727;51.202;6.344;2023-07-31T07:16:00;16.50;99.90
9375;DHT22;4727;51.202;6.344;2023-07-31T07:18:26;16.40;99.90
9375;DHT22;4727;51.202;6.344;2023-07-31T07:20:52;16.30;99.90
9375;DHT22;4727;51.202;6.344;2023-07-31T07:23:19;16.50;99.90
9375;DHT22;4727;51.202;6.344;2023-07-31T07:25:45;16.60;99.90
9375;DHT22;4727;51.202;6.344;2023-07-31T07:28:11;16.40;99.90
9375;DHT22;4727;51.202;6.344;2023-07-31T07:30:37;16.20;99.90
9375;DHT22;4727;51.202;6.344;2023-07-31T07:33:03;16.30;99.90
9375;DHT22;4727;51.202;6.344;2023-07-31T07:35:28;16.30;99.90
9375;DHT22;4727;51.202;6.344;2023-07-31T07:37:54;16.30;99.90
9375;DHT22;4727;51.202;6.344;2023-07-31T07:40:20;16.30;99.90
9375;DHT22;4727;51.202;6.344;2023-07-31T07:42:46;16.20;99.90
9375;DHT22;4727;51.202;6.344;2023-07-31T07:45:12;16.20;99.90
9375;DHT22;4727;51.202;6.344;2023-07-31T07:47:40;16.20;99.90
9375;DHT22;4727;51.202;6.344;2023-07-31T07:50:06;16.40;99.90
9375;DHT22;4727;51.202;6.344;2023-07-31T07:52:32;16.30;99.90
9375;DHT22;4727;51.202;6.344;2023-07-31T07:54:57;16.30;99.90
9375;DHT22;4727;51.202;6.344;2023-07-31T07:57:23;16.30;99.90
9375;DHT22;4727;51.202;6.344;2023-07-31T07:59:48;16.30;99.90
9375;DHT22;4727;51.202;6.344;2023-07-31T08:02:14;16.30;99.90
9375;DHT22;4727;51.202;6.344;2023-07-31T08:04:39;16.20;99.90
9375;DHT22;4727;51.202;6.344;2023-07-31T08:07:05;16.20;99.90
9375;DHT22;4727;51.202;6.344;2023-07-31T08:09:31;16.20;99.90
9375;DHT22;4727;51.202;6.344;2023-07-31T08:11:56;16.20;99.90
9375;DHT22;4727;51.202;6.344;2023-07-31T08:14:27;16.20;99.90
9375;DHT22;4727;51.202;6.344;2023-07-31T08:16:52;16.30;99.90
9375;DHT22;4727;51.202;6.344;2023-07-31T08:19:18;16.20;99.90
9375;DHT22;4727;51.202;6.344;2023-07-31T08:21:44;16.30;99.90
9375;DHT22;4727;51.202;6.344;2023-07-31T08:24:09;16.30;99.90
9375;DHT22;4727;51.202;6.344;2023-07-31T08:26:35;16.30;99.90
9375;DHT22;4727;51.202;6.344;2023-07-31T08:29:01;16.40;99.90
9375;DHT22;4727;51.202;6.344;2023-07-31T08:31:26;16.60;99.90
9375;DHT22;4727;51.202;6.344;2023-07-31T08:33:52;16.50;99.90
9375;DHT22;4727;51.202;6.344;2023-07-31T08:36:18;16.40;99.90
9375;DHT22;4727;51.202;6.344;2023-07-31T08:38:45;16.30;99.90
9375;DHT22;4727;51.202;6.344;2023-07-31T08:41:10;16.30;99.90
9375;DHT22;4727;51.202;6.344;2023-07-31T08:43:36;16.30;99.90
9375;DHT22;4727;51.202;6.344;2023-07-31T08:46:03;16.40;99.90
9375;DHT22;4727;51.202;6.344;2023-07-31T08:48:31;16.40;99.90
9375;DHT22;4727;51.202;6.344;2023-07-31T08:50:57;16.40;99.90
9375;DHT22;4727;51.202;6.344;2023-07-31T08:53:22;16.40;99.90
9375;DHT22;4727;51.202;6.344;2023-07-31T08:55:49;16.60;99.90
9375;DHT22;4727;51.202;6.344;2023-07-31T08:58:15;16.50;99.90
9375;DHT22;4727;51.202;6.344;2023-07-31T09:00:41;16.50;99.90
9375;DHT22;4727;51.202;6.344;2023-07-31T09:03:15;16.50;99.90
9375;DHT22;4727;51.202;6.344;2023-07-31T09:05:44;16.40;99.90
9375;DHT22;4727;51.202;6.344;2023-07-31T09:08:11;16.40;99.90
9375;DHT22;4727;51.202;6.344;2023-07-31T09:10:44;16.40;99.90
9375;DHT22;4727;51.202;6.344;2023-07-31T09:13:14;16.50;99.90
9375;DHT22;4727;51.202;6.344;2023-07-31T09:15:42;16.50;99.90
9375;DHT22;4727;51.202;6.344;2023-07-31T09:18:08;16.50;99.90
9375;DHT22;4727;51.202;6.344;2023-07-31T09:20:34;16.50;99.90
9375;DHT22;4727;51.202;6.344;2023-07-31T09:23:12;16.50;99.90
9375;DHT22;4727;51.202;6.344;2023-07-31T09:25:38;16.50;99.90
9375;DHT22;4727;51.202;6.344;2023-07-31T09:28:09;16.50;99.90
9375;DHT22;4727;51.202;6.344;2023-07-31T09:30:49;16.50;99.90
9375;DHT22;4727;51.202;6.344;2023-07-31T09:33:16;16.50;99.90
9375;DHT22;4727;51.202;6.344;2023-07-31T09:35:42;16.50;99.90
9375;DHT22;4727;51.202;6.344;2023-07-31T09:38:26;16.50;99.90
9375;DHT22;4727;51.202;6.344;2023-07-31T09:40:52;16.50;99.90
9375;DHT22;4727;51.202;6.344;2023-07-31T09:43:23;16.50;99.90
9375;DHT22;4727;51.202;6.344;2023-07-31T09:45:56;16.60;99.90
9375;DHT22;4727;51.202;6.344;2023-07-31T09:48:23;16.50;99.90
9375;DHT22;4727;51.202;6.344;2023-07-31T09:50:51;16.50;99.90
9375;DHT22;4727;51.202;6.344;2023-07-31T09:53:17;16.60;99.90
9375;DHT22;4727;51.202;6.344;2023-07-31T09:55:43;16.50;99.90
9375;DHT22;4727;51.202;6.344;2023-07-31T09:58:12;16.60;99.90
9375;DHT22;4727;51.202;6.344;2023-07-31T10:00:38;16.60;99.90
9375;DHT22;4727;51.202;6.344;2023-07-31T10:03:08;16.70;99.90
9375;DHT22;4727;51.202;6.344;2023-07-31T10:05:49;16.70;99.90
9375;DHT22;4727;51.202;6.344;2023-07-31T10:08:15;16.80;99.90
9375;DHT22;4727;51.202;6.344;2023-07-31T10:10:44;16.80;99.90
9375;DHT22;4727;51.202;6.344;2023-07-31T10:13:10;16.90;99.90
9375;DHT22;4727;51.202;6.344;2023-07-31T10:15:36;16.90;99.90
9375;DHT22;4727;51.202;6.344;2023-07-31T10:18:02;17.00;99.90
9375;DHT22;4727;51.202;6.344;2023-07-31T10:20:30;17.00;99.90
9375;DHT22;4727;51.202;6.344;2023-07-31T10:22:56;17.00;99.90
9375;DHT22;4727;51.202;6.344;2023-07-31T10:25:22;16.90;99.90
9375;DHT22;4727;51.202;6.344;2023-07-31T10:27:49;17.00;99.90
9375;DHT22;4727;51.202;6.344;2023-07-31T10:30:17;17.10;99.90
9375;DHT22;4727;51.202;6.344;2023-07-31T10:32:45;17.10;99.90
9375;DHT22;4727;51.202;6.344;2023-07-31T10:35:11;17.00;99.90
9375;DHT22;4727;51.202;6.344;2023-07-31T10:37:41;17.20;99.90
9375;DHT22;4727;51.202;6.344;2023-07-31T10:40:19;17.30;99.90
9375;DHT22;4727;51.202;6.344;2023-07-31T10:42:50;17.30;99.90
9375;DHT22;4727;51.202;6.344;2023-07-31T10:45:46;17.30;99.90
9375;DHT22;4727;51.202;6.344;2023-07-31T10:48:17;17.30;99.90
9375;DHT22;4727;51.202;6.344;2023-07-31T10:50:51;17.30;99.90
9375;DHT22;4727;51.202;6.344;2023-07-31T10:55:52;17.30;99.90
9375;DHT22;4727;51.202;6.344;2023-07-31T10:58:19;17.30;99.90
9375;DHT22;4727;51.202;6.344;2023-07-31T11:00:46;17.40;99.90
9375;DHT22;4727;51.202;6.344;2023-07-31T11:03:18;17.40;99.90
9375;DHT22;4727;51.202;6.344;2023-07-31T11:05:51;17.40;99.90
9375;DHT22;4727;51.202;6.344;2023-07-31T11:08:24;17.40;99.90
9375;DHT22;4727;51.202;6.344;2023-07-31T11:11:13;17.50;99.90
9375;DHT22;4727;51.202;6.344;2023-07-31T11:13:50;17.50;99.90
9375;DHT22;4727;51.202;6.344;2023-07-31T11:16:18;17.60;99.90
9375;DHT22;4727;51.202;6.344;2023-07-31T11:18:46;17.50;99.90
9375;DHT22;4727;51.202;6.344;2023-07-31T11:21:20;17.60;99.90
9375;DHT22;4727;51.202;6.344;2023-07-31T11:23:47;17.50;99.90
9375;DHT22;4727;51.202;6.344;2023-07-31T11:26:14;17.60;99.90
9375;DHT22;4727;51.202;6.344;2023-07-31T11:28:40;17.60;99.90
9375;DHT22;4727;51.202;6.344;2023-07-31T11:31:09;17.70;99.90
9375;DHT22;4727;51.202;6.344;2023-07-31T11:33:35;17.70;99.90
9375;DHT22;4727;51.202;6.344;2023-07-31T11:36:00;17.60;99.90
9375;DHT22;4727;51.202;6.344;2023-07-31T11:38:27;17.70;99.90
9375;DHT22;4727;51.202;6.344;2023-07-31T11:40:54;17.70;99.90
9375;DHT22;4727;51.202;6.344;2023-07-31T11:43:20;17.80;99.90
9375;DHT22;4727;51.202;6.344;2023-07-31T11:45:51;17.80;99.90
9375;DHT22;4727;51.202;6.344;2023-07-31T11:48:27;17.80;99.90
9375;DHT22;4727;51.202;6.344;2023-07-31T11:50:56;17.80;99.90
9375;DHT22;4727;51.202;6.344;2023-07-31T11:56:09;17.80;99.90
9375;DHT22;4727;51.202;6.344;2023-07-31T11:58:38;17.80;99.90
9375;DHT22;4727;51.202;6.344;2023-07-31T12:01:05;17.80;99.90
9375;DHT22;4727;51.202;6.344;2023-07-31T12:03:31;17.80;99.90
9375;DHT22;4727;51.202;6.344;2023-07-31T12:05:58;17.80;99.90
9375;DHT22;4727;51.202;6.344;2023-07-31T12:08:24;18.00;99.90
9375;DHT22;4727;51.202;6.344;2023-07-31T12:10:51;18.00;99.90
9375;DHT22;4727;51.202;6.344;2023-07-31T12:13:23;17.80;99.90
9375;DHT22;4727;51.202;6.344;2023-07-31T12:15:49;17.80;99.90
9375;DHT22;4727;51.202;6.344;2023-07-31T12:18:19;17.80;99.90
9375;DHT22;4727;51.202;6.344;2023-07-31T12:20:48;17.80;99.90
9375;DHT22;4727;51.202;6.344;2023-07-31T12:23:18;17.70;99.90
9375;DHT22;4727;51.202;6.344;2023-07-31T12:25:44;17.80;99.90
9375;DHT22;4727;51.202;6.344;2023-07-31T12:28:10;17.80;99.90
9375;DHT22;4727;51.202;6.344;2023-07-31T12:30:40;17.80;99.90
9375;DHT22;4727;51.202;6.344;2023-07-31T12:33:11;17.70;99.90
9375;DHT22;4727;51.202;6.344;2023-07-31T12:35:40;17.70;99.90
9375;DHT22;4727;51.202;6.344;2023-07-31T12:38:06;17.80;99.90
9375;DHT22;4727;51.202;6.344;2023-07-31T12:40:32;17.90;99.90
9375;DHT22;4727;51.202;6.344;2023-07-31T12:43:00;17.80;99.90
9375;DHT22;4727;51.202;6.344;2023-07-31T12:45:26;17.90;99.90
9375;DHT22;4727;51.202;6.344;2023-07-31T12:47:52;17.90;99.90
9375;DHT22;4727;51.202;6.344;2023-07-31T12:50:17;17.90;99.90
9375;DHT22;4727;51.202;6.344;2023-07-31T12:52:43;18.00;99.90
9375;DHT22;4727;51.202;6.344;2023-07-31T12:55:09;18.00;99.90
9375;DHT22;4727;51.202;6.344;2023-07-31T12:57:36;18.00;99.90
9375;DHT22;4727;51.202;6.344;2023-07-31T13:00:02;18.10;99.90
9375;DHT22;4727;51.202;6.344;2023-07-31T13:02:28;18.20;99.90
9375;DHT22;4727;51.202;6.344;2023-07-31T13:04:53;18.30;99.90
9375;DHT22;4727;51.202;6.344;2023-07-31T13:07:19;18.50;99.90
9375;DHT22;4727;51.202;6.344;2023-07-31T13:09:45;18.50;99.90
9375;DHT22;4727;51.202;6.344;2023-07-31T13:12:11;18.70;99.90
9375;DHT22;4727;51.202;6.344;2023-07-31T13:14:36;18.80;99.90
9375;DHT22;4727;51.202;6.344;2023-07-31T13:17:02;19.00;99.90
9375;DHT22;4727;51.202;6.344;2023-07-31T13:19:27;19.10;99.90
9375;DHT22;4727;51.202;6.344;2023-07-31T13:21:53;19.20;99.90
9375;DHT22;4727;51.202;6.344;2023-07-31T13:24:18;19.20;99.90
9375;DHT22;4727;51.202;6.344;2023-07-31T13:26:44;19.30;99.90
9375;DHT22;4727;51.202;6.344;2023-07-31T13:29:09;19.30;99.90
9375;DHT22;4727;51.202;6.344;2023-07-31T13:31:36;19.40;99.90
9375;DHT22;4727;51.202;6.344;2023-07-31T13:34:01;19.40;99.90
9375;DHT22;4727;51.202;6.344;2023-07-31T13:36:28;19.50;99.90
9375;DHT22;4727;51.202;6.344;2023-07-31T13:38:53;19.30;99.90
9375;DHT22;4727;51.202;6.344;2023-07-31T13:41:19;19.40;99.90
9375;DHT22;4727;51.202;6.344;2023-07-31T13:43:44;19.20;99.90
9375;DHT22;4727;51.202;6.344;2023-07-31T13:46:10;19.30;99.90
9375;DHT22;4727;51.202;6.344;2023-07-31T13:48:36;19.30;99.90
9375;DHT22;4727;51.202;6.344;2023-07-31T13:51:02;19.30;99.90
9375;DHT22;4727;51.202;6.344;2023-07-31T13:53:27;19.30;99.90
9375;DHT22;4727;51.202;6.344;2023-07-31T13:55:53;19.20;99.90
9375;DHT22;4727;51.202;6.344;2023-07-31T13:58:20;19.20;99.90
9375;DHT22;4727;51.202;6.344;2023-07-31T14:00:45;19.30;99.90
9375;DHT22;4727;51.202;6.344;2023-07-31T14:03:11;19.20;99.90
9375;DHT22;4727;51.202;6.344;2023-07-31T14:05:37;19.20;99.90
9375;DHT22;4727;51.202;6.344;2023-07-31T14:08:02;19.30;99.90
9375;DHT22;4727;51.202;6.344;2023-07-31T14:10:28;19.20;99.90
9375;DHT22;4727;51.202;6.344;2023-07-31T14:12:53;19.30;99.90
9375;DHT22;4727;51.202;6.344;2023-07-31T14:15:19;19.20;99.90
9375;DHT22;4727;51.202;6.344;2023-07-31T14:17:44;19.10;99.90
9375;DHT22;4727;51.202;6.344;2023-07-31T14:20:10;18.90;99.90
9375;DHT22;4727;51.202;6.344;2023-07-31T14:22:36;19.00;99.90
9375;DHT22;4727;51.202;6.344;2023-07-31T14:25:03;19.00;99.90
9375;DHT22;4727;51.202;6.344;2023-07-31T14:27:29;19.00;99.90
9375;DHT22;4727;51.202;6.344;2023-07-31T14:29:54;18.90;99.90
9375;DHT22;4727;51.202;6.344;2023-07-31T14:32:21;19.00;99.90
9375;DHT22;4727;51.202;6.344;2023-07-31T14:34:48;19.00;99.90
9375;DHT22;4727;51.202;6.344;2023-07-31T14:37:14;19.10;99.90
9375;DHT22;4727;51.202;6.344;2023-07-31T14:39:39;19.20;99.90
9375;DHT22;4727;51.202;6.344;2023-07-31T14:42:05;19.30;99.90
9375;DHT22;4727;51.202;6.344;2023-07-31T14:44:31;19.20;99.90
9375;DHT22;4727;51.202;6.344;2023-07-31T14:46:56;19.10;99.90
9375;DHT22;4727;51.202;6.344;2023-07-31T14:49:23;19.20;99.90
9375;DHT22;4727;51.202;6.344;2023-07-31T14:51:48;19.20;99.90
9375;DHT22;4727;51.202;6.344;2023-07-31T14:54:14;19.40;99.90
9375;DHT22;4727;51.202;6.344;2023-07-31T14:56:40;19.20;99.90
9375;DHT22;4727;51.202;6.344;2023-07-31T14:59:05;19.20;99.90
9375;DHT22;4727;51.202;6.344;2023-07-31T15:01:33;19.20;99.90
9375;DHT22;4727;51.202;6.344;2023-07-31T15:03:58;19.30;99.90
9375;DHT22;4727;51.202;6.344;2023-07-31T15:06:24;19.20;99.90
9375;DHT22;4727;51.202;6.344;2023-07-31T15:08:50;19.20;99.90
9375;DHT22;4727;51.202;6.344;2023-07-31T15:11:15;19.40;99.90
9375;DHT22;4727;51.202;6.344;2023-07-31T15:13:41;19.30;99.90
9375;DHT22;4727;51.202;6.344;2023-07-31T15:16:07;19.20;99.90
9375;DHT22;4727;51.202;6.344;2023-07-31T15:18:32;19.20;99.90
9375;DHT22;4727;51.202;6.344;2023-07-31T15:20:58;19.20;99.90
9375;DHT22;4727;51.202;6.344;2023-07-31T15:23:23;19.10;99.90
9375;DHT22;4727;51.202;6.344;2023-07-31T15:25:49;18.90;99.90
9375;DHT22;4727;51.202;6.344;2023-07-31T15:28:14;18.70;99.90
9375;DHT22;4727;51.202;6.344;2023-07-31T15:30:41;18.70;99.90
9375;DHT22;4727;51.202;6.344;2023-07-31T15:33:06;18.50;99.90
9375;DHT22;4727;51.202;6.344;2023-07-31T15:35:32;18.50;99.90
9375;DHT22;4727;51.202;6.344;2023-07-31T15:37:57;18.40;99.90
9375;DHT22;4727;51.202;6.344;2023-07-31T15:40:23;18.30;99.90
9375;DHT22;4727;51.202;6.344;2023-07-31T15:42:48;18.20;99.90
9375;DHT22;4727;51.202;6.344;2023-07-31T15:45:14;18.20;99.90
9375;DHT22;4727;51.202;6.344;2023-07-31T15:47:39;18.20;99.90
9375;DHT22;4727;51.202;6.344;2023-07-31T15:50:06;18.10;99.90
9375;DHT22;4727;51.202;6.344;2023-07-31T15:52:31;18.00;99.90
9375;DHT22;4727;51.202;6.344;2023-07-31T15:54:57;18.10;99.90
9375;DHT22;4727;51.202;6.344;2023-07-31T15:57:23;18.00;99.90
9375;DHT22;4727;51.202;6.344;2023-07-31T15:59:48;18.00;99.90
9375;DHT22;4727;51.202;6.344;2023-07-31T16:02:14;18.00;99.90
9375;DHT22;4727;51.202;6.344;2023-07-31T16:04:40;18.00;99.90
9375;DHT22;4727;51.202;6.344;2023-07-31T16:07:06;18.10;99.90
9375;DHT22;4727;51.202;6.344;2023-07-31T16:09:31;18.00;99.90
9375;DHT22;4727;51.202;6.344;2023-07-31T16:11:57;18.00;99.90